メインページ
METAR-TAF:

METAR-TAF

空港 :

福岡空港

福岡, 日本

緯度: 33-35N, 経度: 130-27E, 海抜: 9m

現時点の気象観測

当レポートは40分前の11:30(UTC)に作成
の風 4kt、北西からの間で変化する
気温 19°C
湿度 60%
気圧 1012 hPa
視程10km以上
高度3500ftの雲はほとんどない
高度10000ftの千切れ雲あり
高度12000ftの千切れ雲あり

METAR: RJFF 161130Z 01004KT 310V080 9999 FEW035 BKN100 BKN120 19/11 Q1012 NOSIG RMK 1CU035 5AC100 7AC120 A2990

時間: 21:10 (12:10 UTC)

予報

当レポートは1時間3分前の11:07(UTC)に作成
予報は16日の 12時(UTC)から 17日の 18時(UTC)まで有効
北/北東の風 5kt
視程10km以上
高度2000ftの雲はほとんどない
高度4500ftの雲は散在している
16日の 12時(UTC)から 16日の 14時(UTC)まで徐々に
南東の風 4kt
17日の 00時(UTC)から 17日の 03時(UTC)まで徐々に
北/北西の風 9kt
17日の 09時(UTC)から 17日の 12時(UTC)まで徐々に
南東の風 4kt

TAF: RJFF 161107Z 1612/1718 02005KT 9999 FEW020 SCT045 BECMG 1612/1614 14004KT BECMG 1700/1703 33009KT BECMG 1709/1712 14004KT

4,000以上の空港の気象観測と天気予報(METAR報とTAF報)

利用可能な観測所は地図上に黄色い丸と赤い丸で示す。

丸の上にカーソルを重ねると観測所名を参照できる。

次にクリックすると気象観測と天気予報を参照できる。

マップの切り替え:黒色「×」印の緑ボタンをクリックして拡大、「-」印の緑ボタンをクリックして縮小、緑色の三角印をクリックして隣りの地図に切り替え


METAR-TAF: